Ponca City Regional Airport Ponca City US
ICAO: KPNC
IATA: PNC
Category: Medium
Scheduled Services: No

Elevation: 1008 ft
TransAlt. 18000 ft.

Airport Communications:
ASOS:134.075
KANSAS CITY CNTR:127.8
MC ALESTER RDO:122.25
CTAF/UNICOM:123

KPNC Zoom In..

If you have problems with the map follow the link
https://www.worldairports.se/pages/airport.php?
ICAO=KPNC

Runways:

(A) RW 17 length 7201 ft width 150 ft
ILS 111.90 / hdg 175

(B) RW 35 length 7201 ft width 150 ft
---- / hdg 355

Location; KPNC
Day. 20 / Time. 09.53 Zulu
* Altimeter: 30.59
* Temperature: -06° c. -21.2°f.
* Wind from: 100° Speed 03 kn.
Dewpoint: -11° c.
Visibility: 10 Statute Miles.
Clouds: Clear (automated report).

KPNC 200953Z AUTO 10003KT 10SM CLR M06/M11 A3059 RMK AO2 SLP367 T10561106


Wind From 100°
Speed 03 kn.

 
 
jpsmedia worldairports.se 2020   terms of use